Time;durP1;ratioP1;P1;durP2;ratioP2;P2;SDS_P1;SDS_P2;PMS_P1;PMS_P2;Temp;Humidity;BMP_temperature;BMP_pressure;BME280_temperature;BME280_humidity;BME280_pressure;Samples;Min_cycle;Max_cycle;Signal;HPM_P1;HPM_P2
2023/07/19 00:05:40;;;;;;;6.20;4.30;;;;;;;16.28;71.71;98514.52;225641;1281;22547;-72
2023/07/19 00:10:48;;;;;;;10.00;4.90;;;;;;;16.24;71.74;98512.60;225691;1281;25238;-71
2023/07/19 00:16:00;;;;;;;5.30;4.10;;;;;;;16.22;71.91;98507.17;225642;1281;22562;-72
2023/07/19 00:21:16;;;;;;;7.90;4.50;;;;;;;16.22;71.94;98498.52;225533;1281;22540;-71
2023/07/19 00:32:57;;;;;;;4.40;3.50;;;;;;;16.15;71.91;98469.21;225583;1281;22543;-73
2023/07/19 00:38:32;;;;;;;;;;;;;;;;;;;;;
2023/07/19 00:43:49;;;;;;;;;;;;;;;;;;;;;
2023/07/19 00:49:02;;;;;;;8.20;4.20;;;;;;;16.03;72.43;98463.58;225682;1281;22554;-72
2023/07/19 00:54:53;;;;;;;5.30;3.70;;;;;;;16.02;72.27;98461.71;225682;1281;22558;-72
2023/07/19 01:00:35;;;;;;;5.10;3.70;;;;;;;16.00;71.91;98458.27;225640;1281;22548;-72
2023/07/19 01:06:14;;;;;;;4.80;3.80;;;;;;;15.99;72.13;98457.80;225711;1282;22547;-72
2023/07/19 01:12:08;;;;;;;5.10;3.70;;;;;;;15.99;72.23;98456.57;225719;1279;22550;-72
2023/07/19 01:18:32;;;;;;;4.00;3.40;;;;;;;15.99;72.15;98449.27;225728;1281;22539;-72
2023/07/19 01:24:36;;;;;;;;;;;;;;;;;;;;;
2023/07/19 01:30:22;;;;;;;4.80;3.60;;;;;;;15.95;72.05;98422.41;225685;1281;22550;-72
2023/07/19 01:35:47;;;;;;;4.10;3.70;;;;;;;15.96;72.22;98428.31;225675;1281;22597;-72
2023/07/19 01:41:07;;;;;;;5.80;4.10;;;;;;;15.98;72.23;98420.18;225462;1282;23718;-71
2023/07/19 01:46:28;;;;;;;7.00;4.30;;;;;;;15.96;72.16;98415.58;225497;1279;25469;-71
2023/07/19 01:51:55;;;;;;;6.50;4.20;;;;;;;15.92;72.41;98414.93;225544;1283;23075;-72
2023/07/19 01:57:14;;;;;;;5.40;4.20;;;;;;;15.87;72.45;98411.20;225511;1283;22596;-72
2023/07/19 02:03:51;;;;;;;7.80;4.60;;;;;;;15.83;72.50;98411.70;225470;1283;22552;-71
2023/07/19 02:16:25;;;;;;;7.10;4.50;;;;;;;15.81;72.71;98411.39;225696;1281;25391;-72
2023/07/19 02:22:06;;;;;;;;;;;;;;;;;;;;;
2023/07/19 02:27:39;;;;;;;6.80;4.20;;;;;;;15.79;72.70;98404.88;225852;1281;22568;-72
2023/07/19 02:33:20;;;;;;;7.10;4.30;;;;;;;15.76;72.72;98402.42;225796;1281;24883;-71
2023/07/19 02:39:17;;;;;;;10.30;5.10;;;;;;;15.72;72.81;98402.70;225708;1281;22530;-72
2023/07/19 02:44:27;;;;;;;9.20;5.50;;;;;;;15.68;72.91;98401.36;225561;1281;22687;-71
2023/07/19 02:49:41;;;;;;;7.00;4.40;;;;;;;15.63;72.93;98399.96;225600;1276;22536;-72
2023/07/19 02:55:06;;;;;;;7.60;5.00;;;;;;;15.60;73.09;98402.77;225755;1279;25273;-72
2023/07/19 03:00:56;;;;;;;10.20;5.30;;;;;;;15.56;73.24;98394.69;225756;1281;22548;-71
2023/07/19 03:06:18;;;;;;;5.90;4.60;;;;;;;15.56;73.07;98395.55;225767;1281;25721;-72
2023/07/19 03:12:53;;;;;;;8.20;5.00;;;;;;;15.58;73.09;98390.70;225803;1281;22559;-71
2023/07/19 03:18:35;;;;;;;;;;;;;;;;;;;;;
2023/07/19 03:24:34;;;;;;;8.80;4.50;;;;;;;15.71;72.89;98396.64;225663;1281;22507;-72
2023/07/19 03:30:54;;;;;;;;;;;;;;;;;;;;;
2023/07/19 03:36:41;;;;;;;7.30;4.60;;;;;;;15.99;72.53;98403.17;225691;1276;22546;-72
2023/07/19 03:42:27;;;;;;;7.40;4.90;;;;;;;16.11;72.62;98394.96;225805;1281;22561;-71
2023/07/19 03:48:19;;;;;;;7.80;4.60;;;;;;;16.28;72.31;98389.61;225713;1281;25254;-71
2023/07/19 03:54:04;;;;;;;;;;;;;;;;;;;;;
2023/07/19 03:59:31;;;;;;;8.80;4.60;;;;;;;16.48;72.13;98406.86;225806;1281;23655;-72
2023/07/19 04:05:31;;;;;;;;;;;;;;;;;;;;;
2023/07/19 04:10:59;;;;;;;7.00;4.30;;;;;;;16.77;71.85;98421.03;225705;1281;22544;-72
2023/07/19 04:16:36;;;;;;;8.30;4.00;;;;;;;16.92;71.85;98429.86;225778;1278;22549;-72
2023/07/19 04:22:09;;;;;;;7.20;3.80;;;;;;;17.11;71.45;98428.14;225714;1281;22539;-72
2023/07/19 04:28:13;;;;;;;7.90;4.60;;;;;;;17.27;70.65;98422.40;225721;1281;22600;-72
2023/07/19 04:33:31;;;;;;;6.90;3.90;;;;;;;17.42;70.61;98425.92;225777;1281;22531;-73
2023/07/19 04:39:01;;;;;;;7.90;4.00;;;;;;;17.54;70.21;98427.89;225773;1280;22538;-74
2023/07/19 04:44:35;;;;;;;;;;;;;;;;;;;;;
2023/07/19 04:50:57;;;;;;;6.50;3.50;;;;;;;17.91;69.64;98418.81;225753;1281;25234;-71
2023/07/19 04:56:40;;;;;;;7.20;3.50;;;;;;;18.10;69.25;98421.92;225723;1281;23262;-71
2023/07/19 05:02:31;;;;;;;5.60;4.10;;;;;;;18.26;69.46;98410.61;225781;1281;22521;-71
2023/07/19 05:13:56;;;;;;;;;;;;;;;;;;;;;
2023/07/19 05:20:00;;;;;;;;;;;;;;;;;;;;;
2023/07/19 05:25:55;;;;;;;8.80;3.80;;;;;;;18.96;68.86;98403.21;225806;1278;22566;-72
2023/07/19 05:32:03;;;;;;;6.90;4.10;;;;;;;19.15;68.40;98399.40;225833;1281;22580;-73
2023/07/19 05:38:29;;;;;;;;;;;;;;;;;;;;;
2023/07/19 05:44:31;;;;;;;6.90;3.80;;;;;;;19.60;67.62;98401.60;225558;1257;22540;-72
2023/07/19 05:49:36;;;;;;;4.10;3.30;;;;;;;19.82;66.92;98402.00;225652;1277;23086;-70
2023/07/19 05:54:39;;;;;;;7.40;3.50;;;;;;;20.02;66.57;98394.95;225615;1280;22557;-71
2023/07/19 05:59:44;;;;;;;5.40;3.70;;;;;;;20.21;66.21;98394.21;225616;1280;22550;-70
2023/07/19 06:05:20;;;;;;;5.50;3.50;;;;;;;20.38;65.78;98396.25;225588;1267;22545;-72
2023/07/19 06:10:31;;;;;;;7.20;3.90;;;;;;;20.56;65.36;98391.25;225421;1257;22527;-72
2023/07/19 06:15:37;;;;;;;6.00;3.80;;;;;;;20.74;65.16;98390.84;225540;1274;24296;-72
2023/07/19 06:20:49;;;;;;;6.40;4.00;;;;;;;20.90;64.88;98394.34;225205;1267;254637;-72
2023/07/19 06:25:54;;;;;;;8.20;4.00;;;;;;;20.99;64.70;98386.84;225426;1274;22709;-74
2023/07/19 06:31:12;;;;;;;6.30;4.20;;;;;;;21.11;64.58;98382.95;225354;1259;24465;-75
2023/07/19 06:41:37;;;;;;;6.10;4.10;;;;;;;21.36;64.05;98377.10;225274;1273;22544;-76
2023/07/19 06:47:02;;;;;;;7.70;4.30;;;;;;;21.55;63.86;98369.20;226075;1270;26386;-74
2023/07/19 06:52:34;;;;;;;7.50;4.30;;;;;;;21.65;63.23;98370.16;225470;1278;22540;-76
2023/07/19 06:57:41;;;;;;;6.80;4.20;;;;;;;21.80;63.16;98377.05;225406;1278;25077;-74
2023/07/19 07:02:55;;;;;;;7.40;4.20;;;;;;;21.97;63.17;98375.41;225299;1274;25275;-76
2023/07/19 07:08:00;;;;;;;7.10;4.20;;;;;;;22.17;63.08;98375.02;225190;1273;22545;-76
2023/07/19 07:13:03;;;;;;;10.20;7.50;;;;;;;22.31;62.89;98368.42;225563;1278;22587;-77
2023/07/19 07:18:14;;;;;;;7.40;4.40;;;;;;;22.42;63.11;98363.20;225562;1275;24341;-77
2023/07/19 07:23:29;;;;;;;8.90;5.30;;;;;;;22.53;63.15;98363.82;225621;1274;22558;-77
2023/07/19 07:29:01;;;;;;;6.70;4.70;;;;;;;22.65;63.13;98354.71;225593;1275;22596;-76
2023/07/19 07:34:31;;;;;;;4.80;4.30;;;;;;;22.80;62.94;98350.73;225646;1261;22537;-75
2023/07/19 07:40:06;;;;;;;6.20;4.60;;;;;;;22.95;62.81;98353.24;225690;1258;22544;-75
2023/07/19 07:45:11;;;;;;;5.60;4.20;;;;;;;23.15;62.51;98352.68;225540;1280;22548;-76
2023/07/19 07:50:25;;;;;;;5.00;4.20;;;;;;;23.33;62.02;98351.90;225396;1264;22563;-77
2023/07/19 07:55:43;;;;;;;6.30;4.40;;;;;;;23.46;61.19;98350.36;225185;1280;22558;-77
2023/07/19 08:00:51;;;;;;;6.40;4.50;;;;;;;23.60;60.35;98347.73;225372;1275;22648;-76
2023/07/19 08:06:05;;;;;;;5.70;4.40;;;;;;;23.75;60.35;98345.55;225323;1264;22699;-75
2023/07/19 08:11:33;;;;;;;;;;;;;;;;;;;;;
2023/07/19 08:17:07;;;;;;;6.20;4.70;;;;;;;24.25;59.21;98334.89;225406;1265;22556;-77
2023/07/19 08:22:35;;;;;;;6.30;4.80;;;;;;;24.36;58.57;98336.14;225425;1276;22646;-76
2023/07/19 08:27:51;;;;;;;4.90;4.10;;;;;;;24.57;58.50;98329.75;225596;1276;25434;-75
2023/07/19 08:32:53;;;;;;;5.10;4.60;;;;;;;24.77;57.93;98324.73;225550;1275;22553;-75
2023/07/19 08:38:01;;;;;;;4.70;4.30;;;;;;;24.97;57.66;98321.45;225648;1275;22535;-75
2023/07/19 08:43:13;;;;;;;6.10;4.50;;;;;;;25.27;57.46;98319.48;225676;1257;22564;-77
2023/07/19 08:48:32;;;;;;;5.10;4.40;;;;;;;25.67;57.00;98318.79;225573;1275;22569;-75
2023/07/19 08:53:53;;;;;;;7.20;5.90;;;;;;;25.78;56.27;98321.10;225496;1275;22532;-74
2023/07/19 08:59:11;;;;;;;5.80;4.60;;;;;;;25.80;55.88;98312.46;225437;1278;26015;-74
2023/07/19 09:04:21;;;;;;;5.70;4.60;;;;;;;25.78;56.13;98303.45;225481;1280;22568;-74
2023/07/19 09:09:41;;;;;;;5.30;4.50;;;;;;;25.65;55.97;98299.09;225540;1280;22562;-74
2023/07/19 09:15:13;;;;;;;7.20;5.00;;;;;;;25.74;56.08;98288.27;225461;1276;22544;-74
2023/07/19 09:20:20;;;;;;;7.80;4.60;;;;;;;25.95;55.75;98285.90;225431;1276;24256;-73
2023/07/19 09:25:31;;;;;;;6.60;4.50;;;;;;;26.31;55.87;98288.77;225497;1275;22549;-74
2023/07/19 09:30:51;;;;;;;6.80;4.70;;;;;;;26.66;54.96;98282.20;225738;1280;22536;-74
2023/07/19 09:35:57;;;;;;;4.80;4.30;;;;;;;26.84;54.57;98279.61;225583;1275;22574;-74
2023/07/19 09:41:02;;;;;;;5.90;4.30;;;;;;;26.92;53.82;98275.21;225717;1276;22553;-73
2023/07/19 09:46:04;;;;;;;5.30;4.30;;;;;;;27.04;53.23;98277.12;225399;1278;22583;-74
2023/07/19 09:51:07;;;;;;;4.90;4.40;;;;;;;27.23;53.03;98277.35;225239;1278;24211;-74
2023/07/19 09:56:11;;;;;;;6.50;4.60;;;;;;;27.47;52.08;98276.55;225344;1278;22547;-73
2023/07/19 10:01:16;;;;;;;7.70;4.80;;;;;;;27.62;52.17;98274.86;225676;1277;22553;-74
2023/07/19 10:06:25;;;;;;;5.80;4.70;;;;;;;27.68;52.39;98274.29;225792;1278;22593;-74
2023/07/19 10:11:27;;;;;;;;;;;;;;;27.54;51.95;98270.34;225669;1274;22528;-74
2023/07/19 10:16:35;;;;;;;4.80;4.10;;;;;;;27.50;51.70;98264.11;225737;1277;22539;-74
2023/07/19 10:21:37;;;;;;;4.50;4.10;;;;;;;27.61;51.27;98264.80;225580;1280;23051;-74
2023/07/19 10:26:48;;;;;;;4.80;4.30;;;;;;;27.79;50.93;98261.29;225733;1280;22539;-74
2023/07/19 10:31:51;;;;;;;5.30;4.30;;;;;;;28.09;50.92;98255.36;225779;1274;22678;-73
2023/07/19 10:36:53;;;;;;;5.90;4.40;;;;;;;28.47;50.42;98249.58;225721;1273;22589;-74
2023/07/19 10:42:06;;;;;;;5.00;4.50;;;;;;;28.62;50.34;98241.58;225679;1262;22567;-74
2023/07/19 10:47:08;;;;;;;4.80;4.40;;;;;;;28.78;49.83;98237.24;225700;1272;22523;-74
2023/07/19 10:52:20;;;;;;;5.90;4.60;;;;;;;28.73;50.02;98231.92;225612;1259;22534;-74
2023/07/19 10:57:23;;;;;;;7.90;4.80;;;;;;;28.81;49.65;98232.52;225779;1262;22530;-74
2023/07/19 11:02:25;;;;;;;5.90;4.80;;;;;;;28.90;49.48;98228.42;225694;1257;23037;-74
2023/07/19 11:07:34;;;;;;;4.90;4.50;;;;;;;29.09;48.97;98222.19;225658;1280;22551;-74
2023/07/19 11:12:39;;;;;;;5.20;4.70;;;;;;;29.13;48.82;98215.14;225632;1272;22526;-74
2023/07/19 11:17:41;;;;;;;6.60;4.20;;;;;;;29.11;48.36;98207.11;225540;1275;22560;-73
2023/07/19 11:22:49;;;;;;;4.50;4.10;;;;;;;29.26;48.51;98198.41;225647;1269;22526;-73
2023/07/19 11:27:51;;;;;;;5.20;4.00;;;;;;;29.70;48.07;98194.27;225759;1275;26859;-71
2023/07/19 11:33:11;;;;;;;7.10;4.50;;;;;;;30.00;47.45;98190.04;225488;1264;22544;-73
2023/07/19 11:38:17;;;;;;;5.00;3.90;;;;;;;30.10;46.76;98187.10;225398;1265;22577;-73
2023/07/19 11:43:29;;;;;;;5.60;4.30;;;;;;;29.96;46.64;98179.44;225341;1278;22534;-73
2023/07/19 11:48:34;;;;;;;4.90;4.40;;;;;;;29.91;47.03;98179.41;225530;1274;22539;-73
2023/07/19 11:53:37;;;;;;;5.20;4.10;;;;;;;29.95;47.21;98175.81;225472;1281;25265;-73
2023/07/19 11:58:39;;;;;;;5.10;3.90;;;;;;;29.99;47.05;98171.85;225678;1273;22697;-73
2023/07/19 12:03:54;;;;;;;4.40;3.90;;;;;;;29.94;46.19;98172.67;225702;1280;22549;-74
2023/07/19 12:09:08;;;;;;;5.30;4.90;;;;;;;29.95;45.64;98173.41;225576;1275;22536;-74
2023/07/19 12:14:24;;;;;;;4.30;3.90;;;;;;;29.77;44.39;98161.96;225607;1275;22555;-74
2023/07/19 12:19:33;;;;;;;5.60;3.80;;;;;;;29.74;44.53;98159.18;225785;1276;22571;-74
2023/07/19 12:24:36;;;;;;;4.00;3.60;;;;;;;29.74;45.00;98154.54;225535;1278;22541;-74
2023/07/19 12:29:41;;;;;;;4.50;3.80;;;;;;;29.67;44.59;98152.27;225805;1280;22539;-74
2023/07/19 12:35:05;;;;;;;4.50;3.90;;;;;;;29.59;44.44;98146.35;225850;1279;22558;-74
2023/07/19 12:40:10;;;;;;;5.50;3.70;;;;;;;29.55;44.65;98143.64;225864;1277;22547;-73
2023/07/19 12:45:13;;;;;;;4.10;3.40;;;;;;;29.59;44.26;98137.32;225737;1275;22576;-74
2023/07/19 12:50:18;;;;;;;4.50;3.40;;;;;;;29.58;43.78;98131.69;225749;1277;22850;-73
2023/07/19 12:55:31;;;;;;;5.10;3.70;;;;;;;29.62;43.74;98129.29;225698;1280;22545;-73
2023/07/19 13:01:02;;;;;;;4.00;3.70;;;;;;;29.66;43.84;98120.88;225524;1280;22568;-73
2023/07/19 13:06:04;;;;;;;4.30;3.60;;;;;;;29.76;43.40;98118.48;225657;1275;22536;-73
2023/07/19 13:11:18;;;;;;;7.30;3.50;;;;;;;29.63;43.21;98117.73;225873;1278;22736;-74
2023/07/19 13:16:23;;;;;;;3.80;3.50;;;;;;;29.44;43.36;98114.10;225783;1278;22536;-73
2023/07/19 13:21:38;;;;;;;3.80;3.50;;;;;;;29.38;43.43;98101.79;225596;1277;22540;-72
2023/07/19 13:26:59;;;;;;;4.40;3.70;;;;;;;29.48;43.24;98097.70;225735;1268;22545;-72
2023/07/19 13:32:07;;;;;;;5.20;3.80;;;;;;;29.46;43.36;98089.05;225801;1257;23061;-72
2023/07/19 13:37:12;;;;;;;4.20;3.40;;;;;;;29.63;43.53;98084.14;225670;1277;22551;-72
2023/07/19 13:42:14;;;;;;;4.30;3.90;;;;;;;29.75;43.27;98079.69;225572;1262;22563;-73
2023/07/19 13:47:16;;;;;;;3.80;3.40;;;;;;;29.81;43.36;98076.20;225624;1278;24430;-72
2023/07/19 13:52:21;;;;;;;4.30;3.60;;;;;;;29.90;43.24;98069.84;225557;1278;22539;-71
2023/07/19 13:57:27;;;;;;;4.20;3.60;;;;;;;30.03;43.54;98066.46;225431;1262;22680;-72
2023/07/19 14:02:29;;;;;;;4.70;3.70;;;;;;;30.01;42.78;98072.92;225314;1278;22550;-73
2023/07/19 14:07:32;;;;;;;3.70;3.40;;;;;;;29.91;42.62;98065.05;225317;1274;22682;-73
2023/07/19 14:12:38;;;;;;;3.40;3.10;;;;;;;29.89;42.65;98064.66;225085;1280;22540;-73
2023/07/19 14:17:50;;;;;;;3.60;3.30;;;;;;;29.68;42.35;98063.09;225588;1275;22559;-74
2023/07/19 14:22:58;;;;;;;5.90;3.60;;;;;;;29.35;42.92;98061.70;225868;1268;22539;-74
2023/07/19 14:28:03;;;;;;;5.00;3.30;;;;;;;29.09;43.10;98055.88;225955;1278;22571;-74
2023/07/19 14:33:09;;;;;;;4.30;3.50;;;;;;;29.17;43.55;98057.52;225853;1275;22545;-76
2023/07/19 14:38:27;;;;;;;4.90;3.50;;;;;;;29.37;43.32;98053.08;225839;1280;22542;-74
2023/07/19 14:43:32;;;;;;;4.70;3.70;;;;;;;29.54;43.17;98046.27;225805;1278;22563;-74
2023/07/19 14:48:34;;;;;;;5.80;3.30;;;;;;;29.68;42.40;98034.74;225879;1278;22567;-74
2023/07/19 14:53:39;;;;;;;3.60;3.30;;;;;;;29.80;42.20;98024.08;225841;1280;22547;-74
2023/07/19 14:58:47;;;;;;;5.70;3.70;;;;;;;29.91;42.11;98018.04;226004;1280;22918;-73
2023/07/19 15:03:51;;;;;;;3.50;3.20;;;;;;;29.98;42.35;98015.11;225749;1280;22545;-74
2023/07/19 15:08:57;;;;;;;3.40;2.80;;;;;;;29.96;41.55;98012.95;225873;1280;22581;-73
2023/07/19 15:14:06;;;;;;;8.30;2.70;;;;;;;29.82;41.16;98005.65;225890;1280;23284;-74
2023/07/19 15:19:10;;;;;;;8.80;3.30;;;;;;;29.74;41.69;98009.23;225809;1278;22547;-73
2023/07/19 15:24:29;;;;;;;5.20;2.80;;;;;;;29.77;41.28;98008.02;225838;1271;22540;-73
2023/07/19 15:29:32;;;;;;;2.70;2.30;;;;;;;29.81;40.84;98002.86;225799;1279;22527;-73
2023/07/19 15:34:48;;;;;;;2.80;2.60;;;;;;;29.72;39.51;98007.84;225939;1280;22614;-73
2023/07/19 15:39:56;;;;;;;4.50;2.70;;;;;;;29.57;39.86;98013.08;225880;1280;22550;-74
2023/07/19 15:45:03;;;;;;;3.50;2.60;;;;;;;29.53;40.01;98012.25;225881;1280;22714;-73
2023/07/19 15:50:17;;;;;;;2.80;2.50;;;;;;;29.49;39.58;98015.85;225971;1278;22544;-73
2023/07/19 15:55:34;;;;;;;4.50;2.80;;;;;;;29.48;39.82;98015.70;225849;1280;25350;-73
2023/07/19 16:00:46;;;;;;;3.10;2.80;;;;;;;29.41;39.76;98009.07;225880;1278;22548;-73
2023/07/19 16:06:02;;;;;;;3.00;2.70;;;;;;;29.26;40.39;98013.19;225997;1279;22547;-73
2023/07/19 16:11:10;;;;;;;3.10;2.80;;;;;;;29.20;40.43;98020.42;225930;1280;22542;-73
2023/07/19 16:16:39;;;;;;;;;;;;;;;;;;;;;
2023/07/19 16:21:55;;;;;;;3.50;2.90;;;;;;;29.18;41.05;98015.65;225818;1280;22545;-74
2023/07/19 16:27:17;;;;;;;2.90;2.60;;;;;;;29.11;41.18;98020.83;225928;1280;22716;-73
2023/07/19 16:32:28;;;;;;;5.10;3.00;;;;;;;29.03;41.15;98023.95;225983;1272;24290;-73
2023/07/19 16:37:47;;;;;;;3.40;3.10;;;;;;;28.92;41.26;98017.50;225816;1280;22539;-73
2023/07/19 16:43:02;;;;;;;5.30;2.90;;;;;;;28.82;41.25;98011.27;225987;1280;22539;-73
2023/07/19 16:48:21;;;;;;;4.40;3.00;;;;;;;28.73;41.40;98013.19;225962;1280;22683;-73
2023/07/19 16:53:41;;;;;;;2.70;2.30;;;;;;;28.62;41.41;98011.47;226000;1280;22538;-73
2023/07/19 16:58:43;;;;;;;3.00;2.60;;;;;;;28.52;41.56;98006.59;225867;1278;25279;-73
2023/07/19 17:03:46;;;;;;;3.50;3.00;;;;;;;28.49;41.58;98011.70;225977;1278;22537;-73
2023/07/19 17:09:08;;;;;;;4.10;2.80;;;;;;;28.43;41.56;98016.89;225933;1279;24686;-73
2023/07/19 17:14:10;;;;;;;4.80;2.90;;;;;;;28.37;42.06;98023.99;225807;1276;22540;-73
2023/07/19 17:19:29;;;;;;;4.60;2.70;;;;;;;28.26;42.10;98026.95;225961;1278;22564;-73
2023/07/19 17:24:34;;;;;;;3.20;2.80;;;;;;;28.37;42.67;98024.44;225924;1280;22550;-73
2023/07/19 17:29:37;;;;;;;6.60;3.00;;;;;;;29.29;42.80;98015.55;225895;1278;22614;-74
2023/07/19 17:34:47;;;;;;;3.20;2.90;;;;;;;30.30;42.20;98022.51;225900;1278;22613;-73
2023/07/19 17:39:52;;;;;;;3.90;3.40;;;;;;;30.99;41.03;98016.30;225912;1278;22529;-72
2023/07/19 17:44:55;;;;;;;3.20;2.80;;;;;;;31.00;40.28;98022.96;225952;1280;22555;-72
2023/07/19 17:50:03;;;;;;;4.70;2.90;;;;;;;30.36;39.93;98023.73;225887;1280;22597;-73
2023/07/19 17:55:05;;;;;;;4.50;3.80;;;;;;;29.59;40.44;98025.15;225973;1280;22548;-73
2023/07/19 18:00:11;;;;;;;4.70;3.30;;;;;;;28.89;41.12;98029.39;225870;1278;22537;-73
2023/07/19 18:05:16;;;;;;;;;;;;;;;28.28;41.87;98037.48;225882;1279;22538;-74
2023/07/19 18:10:19;;;;;;;4.20;3.50;;;;;;;27.73;42.53;98022.30;225908;1278;23246;-73
2023/07/19 18:15:21;;;;;;;6.30;3.80;;;;;;;27.24;43.22;98018.87;225935;1280;22563;-74
2023/07/19 18:20:23;;;;;;;3.70;3.40;;;;;;;26.79;43.68;98019.48;225585;1278;356738;-73
2023/07/19 18:25:40;;;;;;;5.00;3.40;;;;;;;26.38;44.47;98015.17;225835;1279;22541;-73
2023/07/19 18:30:45;;;;;;;5.50;3.60;;;;;;;25.96;45.31;98021.76;226013;1280;22531;-73
2023/07/19 18:35:47;;;;;;;4.20;3.50;;;;;;;25.55;46.04;98027.69;225882;1273;22554;-74
2023/07/19 18:40:57;;;;;;;6.30;3.40;;;;;;;25.18;46.61;98028.46;225878;1278;25305;-74
2023/07/19 18:46:00;;;;;;;6.00;4.10;;;;;;;24.85;47.25;98029.18;226082;1277;22562;-73
2023/07/19 18:51:02;;;;;;;4.70;3.60;;;;;;;24.56;47.88;98030.61;225751;1278;22566;-74
2023/07/19 18:56:06;;;;;;;5.70;3.30;;;;;;;24.29;48.74;98029.30;225761;1280;22546;-73
2023/07/19 19:01:08;;;;;;;4.40;3.70;;;;;;;24.01;49.44;98024.81;226103;1277;22537;-73
2023/07/19 19:06:19;;;;;;;9.70;4.20;;;;;;;23.72;49.99;98032.25;225866;1280;22544;-73
2023/07/19 19:11:21;;;;;;;5.60;4.60;;;;;;;23.45;50.44;98029.02;225833;1280;22544;-73
2023/07/19 19:16:24;;;;;;;10.00;5.10;;;;;;;23.25;50.70;98033.55;225846;1280;24257;-74
2023/07/19 19:21:27;;;;;;;4.60;3.80;;;;;;;23.09;50.95;98039.55;225873;1278;22541;-74
2023/07/19 19:27:05;;;;;;;4.60;3.30;;;;;;;22.93;50.99;98045.66;225844;1280;22563;-72
2023/07/19 19:32:23;;;;;;;4.00;2.50;;;;;;;22.79;51.07;98051.02;225841;1279;22674;-73
2023/07/19 19:37:48;;;;;;;8.50;3.20;;;;;;;22.69;51.14;98061.66;225650;1279;22550;-73
2023/07/19 19:43:06;;;;;;;4.80;3.00;;;;;;;22.61;51.13;98061.30;225584;1281;22640;-73
2023/07/19 19:48:12;;;;;;;3.20;2.60;;;;;;;22.55;51.03;98059.96;225732;1279;22517;-73
2023/07/19 19:53:18;;;;;;;3.90;2.80;;;;;;;22.50;50.85;98060.75;225517;1281;22573;-72
2023/07/19 19:58:35;;;;;;;3.40;2.30;;;;;;;22.46;50.36;98061.48;225643;1281;22569;-72
2023/07/19 20:03:46;;;;;;;4.10;2.20;;;;;;;22.47;50.21;98064.06;225719;1278;25503;-73
2023/07/19 20:08:57;;;;;;;2.20;2.00;;;;;;;22.45;49.94;98062.84;225734;1281;22540;-73
2023/07/19 20:14:02;;;;;;;4.50;2.90;;;;;;;22.42;50.45;98059.98;225806;1281;22539;-72
2023/07/19 20:19:06;;;;;;;5.20;3.20;;;;;;;22.35;52.93;98062.71;225780;1280;25936;-73
2023/07/19 20:24:40;;;;;;;7.60;3.90;;;;;;;22.25;53.79;98065.70;225899;1280;22578;-72
2023/07/19 20:29:57;;;;;;;4.20;3.20;;;;;;;22.17;54.05;98066.95;225894;1280;24328;-72
2023/07/19 20:35:16;;;;;;;5.10;2.90;;;;;;;22.12;54.11;98080.95;225874;1281;22532;-73
2023/07/19 20:40:39;;;;;;;4.80;2.80;;;;;;;22.11;53.57;98091.63;225911;1277;22560;-72
2023/07/19 20:45:44;;;;;;;6.40;2.80;;;;;;;22.11;53.29;98101.45;225856;1280;24340;-73
2023/07/19 20:50:49;;;;;;;9.20;3.10;;;;;;;22.08;53.73;98110.92;225821;1281;22543;-73
2023/07/19 20:56:17;;;;;;;4.30;2.80;;;;;;;22.03;54.54;98123.70;225877;1280;22571;-72
2023/07/19 21:01:22;;;;;;;4.40;2.90;;;;;;;21.92;55.00;98106.95;225855;1280;22541;-73
2023/07/19 21:06:48;;;;;;;;;;;;;;;;;;;;;
2023/07/19 21:12:22;;;;;;;4.10;2.10;;;;;;;21.54;55.47;98093.05;225907;1280;22527;-73
2023/07/19 21:17:41;;;;;;;6.00;2.70;;;;;;;21.35;55.44;98084.30;225869;1281;22528;-73
2023/07/19 21:22:58;;;;;;;5.50;2.90;;;;;;;21.19;55.73;98067.30;225902;1280;22560;-73
2023/07/19 21:28:11;;;;;;;3.50;2.40;;;;;;;21.05;56.26;98052.57;225823;1279;22651;-73
2023/07/19 21:34:02;;;;;;;3.50;2.60;;;;;;;20.88;56.04;98040.63;225916;1281;25058;-73
2023/07/19 21:39:48;;;;;;;2.60;2.30;;;;;;;20.70;56.21;98049.10;225979;1276;22628;-74
2023/07/19 21:50:57;;;;;;;4.40;3.20;;;;;;;20.24;59.20;98055.33;225813;1281;22527;-73
2023/07/19 21:56:07;;;;;;;;;;;;;;;20.00;59.59;98057.23;225897;1280;22533;-73
2023/07/19 22:01:24;;;;;;;3.40;2.90;;;;;;;19.82;59.92;98059.14;225881;1276;22543;-73
2023/07/19 22:06:45;;;;;;;4.60;2.90;;;;;;;19.69;59.98;98051.18;225788;1280;22580;-74
2023/07/19 22:12:53;;;;;;;7.90;2.90;;;;;;;19.55;60.19;98043.21;225813;1280;22555;-73
2023/07/19 22:24:35;;;;;;;6.40;3.00;;;;;;;19.26;60.64;98037.35;225834;1279;23459;-73
2023/07/19 22:30:55;;;;;;;3.60;2.60;;;;;;;19.10;61.00;98027.09;225825;1280;22567;-73
2023/07/19 22:37:11;;;;;;;4.70;2.70;;;;;;;18.96;61.59;98045.77;225570;1280;24224;-73
2023/07/19 22:43:27;;;;;;;3.50;3.00;;;;;;;18.84;62.42;98048.70;225884;1280;23447;-73
2023/07/19 22:48:30;;;;;;;5.10;2.90;;;;;;;18.78;62.77;98050.44;225901;1277;22568;-72
2023/07/19 22:53:32;;;;;;;4.40;3.00;;;;;;;18.76;63.00;98049.40;225785;1278;22548;-72
2023/07/19 22:58:37;;;;;;;4.90;2.80;;;;;;;18.77;62.69;98046.36;225790;1273;22668;-73
2023/07/19 23:03:50;;;;;;;3.80;2.70;;;;;;;18.78;63.02;98046.70;225885;1280;22556;-74
2023/07/19 23:08:56;;;;;;;3.60;2.70;;;;;;;18.80;62.98;98040.66;225854;1276;22536;-73
2023/07/19 23:14:10;;;;;;;3.40;2.60;;;;;;;18.80;63.37;98043.66;225850;1280;22565;-71
2023/07/19 23:19:23;;;;;;;4.30;2.80;;;;;;;18.80;63.29;98049.12;225875;1277;25050;-73
2023/07/19 23:24:54;;;;;;;5.50;2.80;;;;;;;18.80;63.72;98045.00;225857;1280;22595;-73
2023/07/19 23:30:46;;;;;;;;;;;;;;;18.77;63.82;98039.36;225865;1280;25918;-73
2023/07/19 23:37:24;;;;;;;;;;;;;;;;;;;;;
2023/07/19 23:49:13;;;;;;;5.60;3.50;;;;;;;18.55;65.21;98052.30;225845;1280;22546;-72
2023/07/19 23:54:28;;;;;;;7.60;3.10;;;;;;;18.52;65.22;98067.54;225881;1280;22575;-72
2023/07/19 23:59:42;;;;;;;5.30;3.10;;;;;;;18.53;65.37;98095.58;225863;1269;25346;-72
